createdAt,value
2023-01-19T00:00:31.165Z,2.10
2023-01-19T00:02:57.822Z,2.25
2023-01-19T00:05:24.479Z,5.35
2023-01-19T00:07:51.082Z,5.11
2023-01-19T00:10:17.776Z,3.57
2023-01-19T00:12:44.343Z,2.66
2023-01-19T00:15:11.630Z,2.64
2023-01-19T00:17:40.897Z,2.45
2023-01-19T00:20:10.973Z,2.61
2023-01-19T00:22:37.596Z,2.15
2023-01-19T00:25:04.388Z,2.24
2023-01-19T00:27:34.825Z,2.07
2023-01-19T00:30:02.044Z,2.10
2023-01-19T00:32:28.837Z,1.87
2023-01-19T00:34:55.482Z,1.72
2023-01-19T00:37:22.106Z,1.91
2023-01-19T00:39:48.768Z,1.84
2023-01-19T00:42:33.833Z,1.87
2023-01-19T00:45:00.430Z,1.79
2023-01-19T00:47:27.200Z,1.81
2023-01-19T00:49:53.757Z,1.76
2023-01-19T00:52:20.523Z,1.81
2023-01-19T00:54:47.188Z,1.73
2023-01-19T00:57:15.389Z,1.77
2023-01-19T00:59:42.029Z,1.91
2023-01-19T01:02:08.771Z,1.81
2023-01-19T01:04:35.479Z,2.01
2023-01-19T01:07:02.108Z,1.91
2023-01-19T01:09:28.728Z,1.94
2023-01-19T01:11:55.336Z,2.02
2023-01-19T01:14:21.906Z,2.14
2023-01-19T01:16:48.697Z,2.09
2023-01-19T01:19:16.170Z,2.45
2023-01-19T01:21:42.875Z,2.78
2023-01-19T01:24:09.536Z,2.79
2023-01-19T01:26:36.144Z,2.62
2023-01-19T01:29:02.897Z,3.18
2023-01-19T01:31:29.836Z,3.11
2023-01-19T01:33:56.452Z,3.00
2023-01-19T01:36:23.214Z,2.75
2023-01-19T01:38:50.923Z,2.59
2023-01-19T01:41:17.530Z,2.52
2023-01-19T01:43:48.062Z,2.39
2023-01-19T01:46:16.180Z,2.70
2023-01-19T01:48:52.229Z,2.37
2023-01-19T01:51:26.233Z,2.43
2023-01-19T01:54:20.649Z,2.45
2023-01-19T01:56:49.233Z,2.43
2023-01-19T01:59:26.383Z,2.48
2023-01-19T02:02:13.462Z,2.47
2023-01-19T02:04:44.773Z,2.37
2023-01-19T02:07:34.021Z,2.25
2023-01-19T02:10:19.582Z,2.30
2023-01-19T02:13:04.726Z,2.73
2023-01-19T02:15:31.287Z,2.63
2023-01-19T02:17:58.485Z,2.70
2023-01-19T02:20:28.176Z,2.53
2023-01-19T02:22:55.837Z,2.38
2023-01-19T02:25:22.752Z,2.42
2023-01-19T02:27:50.168Z,2.68
2023-01-19T02:30:17.852Z,3.13
2023-01-19T02:32:44.399Z,3.02
2023-01-19T02:35:11.801Z,3.00
2023-01-19T02:37:40.168Z,2.90
2023-01-19T02:40:11.534Z,3.00
2023-01-19T02:42:43.711Z,2.82
2023-01-19T02:45:12.699Z,2.66
2023-01-19T02:47:42.013Z,2.64
2023-01-19T02:50:46.428Z,2.47
2023-01-19T02:53:30.617Z,2.23
2023-01-19T02:56:01.598Z,2.27
2023-01-19T02:58:59.258Z,2.39
2023-01-19T03:01:47.449Z,2.30
2023-01-19T03:04:53.448Z,2.38
2023-01-19T03:07:41.465Z,2.18
2023-01-19T03:10:13.276Z,2.37
2023-01-19T03:12:54.596Z,2.30
2023-01-19T03:15:35.382Z,2.38
2023-01-19T03:18:02.832Z,2.36
2023-01-19T03:20:29.540Z,2.32
2023-01-19T03:23:01.852Z,2.07
2023-01-19T03:25:31.898Z,2.18
2023-01-19T03:27:59.523Z,2.07
2023-01-19T03:30:29.237Z,2.18
2023-01-19T03:33:22.550Z,2.26
2023-01-19T03:35:51.152Z,2.30
2023-01-19T03:38:22.291Z,2.44
2023-01-19T03:40:49.143Z,2.35
2023-01-19T03:43:16.801Z,2.28
2023-01-19T03:45:44.219Z,2.25
2023-01-19T03:48:11.337Z,2.39
2023-01-19T03:50:38.100Z,2.23
2023-01-19T03:53:13.489Z,2.18
2023-01-19T03:55:45.065Z,2.23
2023-01-19T03:58:12.081Z,2.20
2023-01-19T04:00:41.744Z,2.22
2023-01-19T04:03:13.235Z,2.07
2023-01-19T04:05:40.136Z,2.01
2023-01-19T04:08:06.831Z,1.99
2023-01-19T04:10:33.492Z,1.98
2023-01-19T04:13:04.162Z,1.85
2023-01-19T04:15:31.392Z,1.81
2023-01-19T04:17:59.164Z,1.92
2023-01-19T04:20:28.028Z,1.60
2023-01-19T04:22:56.166Z,1.58
2023-01-19T04:25:22.817Z,1.58
2023-01-19T04:27:52.919Z,1.49
2023-01-19T04:30:19.902Z,1.68
2023-01-19T04:32:46.791Z,1.61
2023-01-19T04:35:13.475Z,1.81
2023-01-19T04:37:40.265Z,1.72
2023-01-19T04:40:07.674Z,1.48
2023-01-19T04:42:34.286Z,1.63
2023-01-19T04:45:00.903Z,1.21
2023-01-19T04:47:27.548Z,1.33
2023-01-19T04:49:54.247Z,1.42
2023-01-19T04:52:20.838Z,1.32
2023-01-19T04:54:47.704Z,1.65
2023-01-19T04:57:14.278Z,1.38
2023-01-19T04:59:41.249Z,1.27
2023-01-19T05:02:07.956Z,1.25
2023-01-19T05:04:34.556Z,1.24
2023-01-19T05:07:01.229Z,1.14
2023-01-19T05:09:27.961Z,1.19
2023-01-19T05:11:54.579Z,1.26
2023-01-19T05:14:21.297Z,1.29
2023-01-19T05:16:47.863Z,1.23
2023-01-19T05:19:15.277Z,1.12
2023-01-19T05:21:41.960Z,1.15
2023-01-19T05:24:08.835Z,1.04
2023-01-19T05:26:35.432Z,1.04
2023-01-19T05:29:02.060Z,0.86
2023-01-19T05:31:28.817Z,1.04
2023-01-19T05:33:55.464Z,0.97
2023-01-19T05:36:22.134Z,1.02
2023-01-19T05:38:49.163Z,1.16
2023-01-19T05:41:15.725Z,1.01
2023-01-19T05:43:42.368Z,1.02
2023-01-19T05:46:09.180Z,0.97
2023-01-19T05:48:35.876Z,1.08
2023-01-19T05:51:02.517Z,0.96
2023-01-19T05:53:29.187Z,1.16
2023-01-19T05:56:00.614Z,1.09
2023-01-19T05:58:27.184Z,1.33
2023-01-19T06:00:53.834Z,1.05
2023-01-19T06:03:20.671Z,0.91
2023-01-19T06:05:47.356Z,1.11
2023-01-19T06:08:14.313Z,2.69
2023-01-19T06:10:41.266Z,2.78
2023-01-19T06:13:09.688Z,2.82
2023-01-19T06:15:36.291Z,2.37
2023-01-19T06:18:02.918Z,2.61
2023-01-19T06:20:29.490Z,2.59
2023-01-19T06:22:59.648Z,2.29
2023-01-19T06:25:26.505Z,2.25
2023-01-19T06:27:53.277Z,2.41
2023-01-19T06:30:20.117Z,2.73
2023-01-19T06:32:47.426Z,2.41
2023-01-19T06:35:14.146Z,2.63
2023-01-19T06:37:40.727Z,2.45
2023-01-19T06:40:07.995Z,2.65
2023-01-19T06:42:34.596Z,2.53
2023-01-19T06:45:01.234Z,2.58
2023-01-19T06:47:27.851Z,2.48
2023-01-19T06:49:54.468Z,2.78
2023-01-19T06:52:21.125Z,2.63
2023-01-19T06:54:47.943Z,2.65
2023-01-19T06:57:16.710Z,2.60
2023-01-19T06:59:44.032Z,3.16
2023-01-19T07:02:26.930Z,2.95
2023-01-19T07:04:54.983Z,3.24
2023-01-19T07:07:21.592Z,2.97
2023-01-19T07:09:48.427Z,3.12
2023-01-19T07:12:15.460Z,3.36
2023-01-19T07:14:42.398Z,2.93
2023-01-19T07:17:09.176Z,2.93
2023-01-19T07:19:36.115Z,3.11
2023-01-19T07:22:03.207Z,3.23
2023-01-19T07:24:34.897Z,3.06
2023-01-19T07:27:01.463Z,2.96
2023-01-19T07:29:28.068Z,2.86
2023-01-19T07:31:54.767Z,2.83
2023-01-19T07:34:21.918Z,2.76
2023-01-19T07:36:48.860Z,2.76
2023-01-19T07:39:15.785Z,2.81
2023-01-19T07:41:42.463Z,2.38
2023-01-19T07:44:09.181Z,2.27
2023-01-19T07:46:35.979Z,3.15
2023-01-19T07:49:02.661Z,3.02
2023-01-19T07:51:29.298Z,2.85
2023-01-19T07:53:55.998Z,2.91
2023-01-19T07:56:24.196Z,2.52
2023-01-19T07:58:52.363Z,2.76
2023-01-19T08:01:19.239Z,2.91
2023-01-19T08:03:48.045Z,2.66
2023-01-19T08:06:24.452Z,2.48
2023-01-19T08:08:51.207Z,2.84
2023-01-19T08:11:17.815Z,2.91
2023-01-19T08:13:44.718Z,2.68
2023-01-19T08:16:12.802Z,2.67
2023-01-19T08:18:42.845Z,2.70
2023-01-19T08:21:09.483Z,2.46
2023-01-19T08:23:36.118Z,3.05
2023-01-19T08:26:02.980Z,2.54
2023-01-19T08:28:29.961Z,2.58
2023-01-19T08:30:56.742Z,2.95
2023-01-19T08:33:25.192Z,2.85
2023-01-19T08:35:53.200Z,2.42
2023-01-19T08:38:20.057Z,3.11
2023-01-19T08:40:46.642Z,2.87
2023-01-19T08:43:17.243Z,2.63
2023-01-19T08:45:48.475Z,2.84
2023-01-19T08:48:16.594Z,2.68
2023-01-19T08:50:46.585Z,2.83
2023-01-19T08:53:13.565Z,2.78
2023-01-19T08:55:40.655Z,2.60
2023-01-19T08:58:08.663Z,3.21
2023-01-19T09:00:37.981Z,3.12
2023-01-19T09:03:06.629Z,3.14
2023-01-19T09:05:35.585Z,2.93
2023-01-19T09:08:03.823Z,2.82
2023-01-19T09:10:36.034Z,3.05
2023-01-19T09:13:08.360Z,3.05
2023-01-19T09:15:38.067Z,2.93
2023-01-19T09:18:07.091Z,2.58
2023-01-19T09:20:36.044Z,3.41
2023-01-19T09:23:02.621Z,2.92
2023-01-19T09:25:29.367Z,2.86
2023-01-19T09:27:56.237Z,3.05
2023-01-19T09:30:22.807Z,2.99
2023-01-19T09:32:49.409Z,2.96
2023-01-19T09:35:16.418Z,3.17
2023-01-19T09:37:47.436Z,3.28
2023-01-19T09:40:15.541Z,3.14
2023-01-19T09:42:44.099Z,3.18
2023-01-19T09:45:36.518Z,2.78
2023-01-19T09:48:20.313Z,2.83
2023-01-19T09:50:48.420Z,3.23
2023-01-19T09:53:27.276Z,3.38
2023-01-19T09:55:54.450Z,3.03
2023-01-19T09:58:21.161Z,3.23
2023-01-19T10:01:05.722Z,3.24
2023-01-19T10:03:32.932Z,3.09
2023-01-19T10:06:03.669Z,3.32
2023-01-19T10:08:41.637Z,3.43
2023-01-19T10:11:41.875Z,3.25
2023-01-19T10:14:26.418Z,3.35
2023-01-19T10:17:05.509Z,3.27
2023-01-19T10:19:38.297Z,3.64
2023-01-19T10:22:25.738Z,3.60
2023-01-19T10:24:59.214Z,3.49
2023-01-19T10:27:31.365Z,3.36
2023-01-19T10:29:58.621Z,3.62
2023-01-19T10:32:31.406Z,3.67
2023-01-19T10:34:59.447Z,3.84
2023-01-19T10:37:31.610Z,3.69
2023-01-19T10:40:02.134Z,3.60
2023-01-19T10:42:30.258Z,3.51
2023-01-19T10:44:57.203Z,3.44
2023-01-19T10:47:31.496Z,3.48
2023-01-19T10:49:58.258Z,3.94
2023-01-19T10:52:36.584Z,3.76
2023-01-19T10:55:04.886Z,4.27
2023-01-19T10:57:36.483Z,4.41
2023-01-19T11:00:05.166Z,4.17
2023-01-19T11:02:32.581Z,3.82
2023-01-19T11:05:01.652Z,3.67
2023-01-19T11:07:28.398Z,3.73
2023-01-19T11:10:21.276Z,4.11
2023-01-19T11:12:55.052Z,4.15
2023-01-19T11:15:31.992Z,3.33
2023-01-19T11:17:59.275Z,3.53
2023-01-19T11:20:32.342Z,3.90
2023-01-19T11:23:19.629Z,4.30
2023-01-19T11:25:49.070Z,3.86
2023-01-19T11:28:19.059Z,3.63
2023-01-19T11:31:01.291Z,3.74
2023-01-19T11:33:42.234Z,3.88
2023-01-19T11:36:23.236Z,3.91
2023-01-19T11:39:14.026Z,3.74
2023-01-19T11:41:41.255Z,3.88
2023-01-19T11:44:22.729Z,4.16
2023-01-19T11:47:02.868Z,4.02
2023-01-19T11:49:40.723Z,3.74
2023-01-19T11:52:46.554Z,4.12
2023-01-19T11:55:20.150Z,3.99
2023-01-19T11:57:48.943Z,3.96
2023-01-19T12:00:46.787Z,4.44
2023-01-19T12:03:19.813Z,4.16
2023-01-19T12:05:49.479Z,4.23
2023-01-19T12:08:22.840Z,4.44
2023-01-19T12:10:51.216Z,4.72
2023-01-19T12:13:23.478Z,4.86
2023-01-19T12:16:11.379Z,4.80
2023-01-19T12:18:48.513Z,4.31
2023-01-19T12:21:15.098Z,4.41
2023-01-19T12:24:01.318Z,4.17
2023-01-19T12:26:57.446Z,4.08
2023-01-19T12:29:29.565Z,4.34
2023-01-19T12:32:16.681Z,4.48
2023-01-19T12:34:48.496Z,4.70
2023-01-19T12:37:38.089Z,4.67
2023-01-19T12:40:23.498Z,4.75
2023-01-19T12:42:59.854Z,4.46
2023-01-19T12:45:35.239Z,4.52
2023-01-19T12:48:02.902Z,4.51
2023-01-19T12:50:37.158Z,4.59
2023-01-19T12:53:07.219Z,4.53
2023-01-19T12:55:37.034Z,4.88
2023-01-19T12:58:18.719Z,4.82
2023-01-19T13:00:47.366Z,4.66
2023-01-19T13:03:17.368Z,4.52
2023-01-19T13:05:43.963Z,4.70
2023-01-19T13:08:11.395Z,4.57
2023-01-19T13:10:59.267Z,4.68
2023-01-19T13:13:40.027Z,4.97
2023-01-19T13:16:19.245Z,4.91
2023-01-19T13:19:06.177Z,4.76
2023-01-19T13:21:44.718Z,4.72
2023-01-19T13:24:16.943Z,4.63
2023-01-19T13:26:55.228Z,4.52
2023-01-19T13:29:31.494Z,4.80
2023-01-19T13:32:02.836Z,4.86
2023-01-19T13:34:49.643Z,4.85
2023-01-19T13:37:19.822Z,4.71
2023-01-19T13:39:51.201Z,4.07
2023-01-19T13:42:25.539Z,4.47
2023-01-19T13:44:53.784Z,4.82
2023-01-19T13:47:23.422Z,4.96
2023-01-19T13:50:01.675Z,4.55
2023-01-19T13:52:29.523Z,4.31
2023-01-19T13:55:01.315Z,4.24
2023-01-19T13:57:39.962Z,4.37
2023-01-19T14:00:09.616Z,4.17
2023-01-19T14:02:39.717Z,4.39
2023-01-19T14:05:25.235Z,4.55
2023-01-19T14:08:13.179Z,4.66
2023-01-19T14:11:02.216Z,4.47
2023-01-19T14:13:32.987Z,5.02
2023-01-19T14:16:05.546Z,4.85
2023-01-19T14:18:34.590Z,5.06
2023-01-19T14:21:07.785Z,4.81
2023-01-19T14:24:12.372Z,4.81
2023-01-19T14:26:53.768Z,4.28
2023-01-19T14:29:29.278Z,4.68
2023-01-19T14:32:01.698Z,4.91
2023-01-19T14:34:31.245Z,5.01
2023-01-19T14:36:58.372Z,5.10
2023-01-19T14:39:27.514Z,4.71
2023-01-19T14:42:00.046Z,4.67
2023-01-19T14:44:35.645Z,4.53
2023-01-19T14:47:02.916Z,5.07
2023-01-19T14:49:38.395Z,4.52
2023-01-19T14:52:06.596Z,4.27
2023-01-19T14:54:40.430Z,4.23
2023-01-19T14:57:12.891Z,4.38
2023-01-19T14:59:40.645Z,4.60
2023-01-19T15:02:09.794Z,4.06
2023-01-19T15:04:37.100Z,4.33
2023-01-19T15:07:04.800Z,4.33
2023-01-19T15:09:33.203Z,4.08
2023-01-19T15:12:04.453Z,4.39
2023-01-19T15:14:31.891Z,4.05
2023-01-19T15:16:59.668Z,4.40
2023-01-19T15:19:26.973Z,4.27
2023-01-19T15:21:54.009Z,4.10
2023-01-19T15:24:24.688Z,3.72
2023-01-19T15:26:55.303Z,4.00
2023-01-19T15:29:26.638Z,4.09
2023-01-19T15:31:56.816Z,4.20
2023-01-19T15:34:27.719Z,4.27
2023-01-19T15:36:54.751Z,4.29
2023-01-19T15:39:21.525Z,4.30
2023-01-19T15:41:48.183Z,4.25
2023-01-19T15:44:14.846Z,4.29
2023-01-19T15:46:43.061Z,4.04
2023-01-19T15:49:13.576Z,4.29
2023-01-19T15:51:40.411Z,4.43
2023-01-19T15:54:15.165Z,3.92
2023-01-19T15:56:52.696Z,4.03
2023-01-19T15:59:23.721Z,4.32
2023-01-19T16:01:55.400Z,4.23
2023-01-19T16:04:23.931Z,4.04
2023-01-19T16:06:51.713Z,4.33
2023-01-19T16:09:20.241Z,3.85
2023-01-19T16:11:49.321Z,3.92
2023-01-19T16:14:26.234Z,3.52
2023-01-19T16:16:54.671Z,4.13
2023-01-19T16:19:21.621Z,3.77
2023-01-19T16:21:48.608Z,4.01
2023-01-19T16:24:15.785Z,3.74
2023-01-19T16:26:42.839Z,3.61
2023-01-19T16:29:10.952Z,3.74
2023-01-19T16:31:39.666Z,4.30
2023-01-19T16:34:08.185Z,4.14
2023-01-19T16:36:38.213Z,3.95
2023-01-19T16:39:07.796Z,4.09
2023-01-19T16:41:35.741Z,3.85
2023-01-19T16:44:03.305Z,3.94
2023-01-19T16:46:34.534Z,4.12
2023-01-19T16:49:07.164Z,4.14
2023-01-19T16:51:34.027Z,4.04
2023-01-19T16:54:01.025Z,3.40
2023-01-19T16:56:28.166Z,3.80
2023-01-19T16:59:02.016Z,4.17
2023-01-19T17:01:32.926Z,4.43
2023-01-19T17:04:00.658Z,4.48
2023-01-19T17:06:31.217Z,4.35
2023-01-19T17:08:59.557Z,4.09
2023-01-19T17:11:29.766Z,4.14
2023-01-19T17:14:06.382Z,4.42
2023-01-19T17:16:34.985Z,4.32
2023-01-19T17:19:05.573Z,4.49
2023-01-19T17:21:33.770Z,4.36
2023-01-19T17:24:00.719Z,4.68
2023-01-19T17:26:31.032Z,4.71
2023-01-19T17:29:02.214Z,4.66
2023-01-19T17:31:30.380Z,4.57
2023-01-19T17:33:57.625Z,4.60
2023-01-19T17:36:25.423Z,4.51
2023-01-19T17:38:53.273Z,4.47
2023-01-19T17:41:21.117Z,4.12
2023-01-19T17:43:50.441Z,4.17
2023-01-19T17:46:18.326Z,4.46
2023-01-19T17:48:44.973Z,4.42
2023-01-19T17:51:12.740Z,4.03
2023-01-19T17:53:40.654Z,4.06
2023-01-19T17:56:13.457Z,4.03
2023-01-19T17:58:40.839Z,4.25
2023-01-19T18:01:33.436Z,4.24
2023-01-19T18:04:03.886Z,3.88
2023-01-19T18:06:30.741Z,3.79
2023-01-19T18:08:59.525Z,4.11
2023-01-19T18:11:26.803Z,3.90
2023-01-19T18:13:53.831Z,3.98
2023-01-19T18:16:23.162Z,4.00
2023-01-19T18:18:50.844Z,3.81
2023-01-19T18:21:18.489Z,4.32
2023-01-19T18:23:45.748Z,4.28
2023-01-19T18:26:15.142Z,4.36
2023-01-19T18:28:41.846Z,4.64
2023-01-19T18:31:10.551Z,4.18
2023-01-19T18:33:38.568Z,4.58
2023-01-19T18:36:05.940Z,4.88
2023-01-19T18:38:33.380Z,4.63
2023-01-19T18:41:12.517Z,4.61
2023-01-19T18:43:39.811Z,4.17
2023-01-19T18:46:07.670Z,4.57
2023-01-19T18:48:34.867Z,4.53
2023-01-19T18:51:05.956Z,4.84
2023-01-19T18:53:32.768Z,4.82
2023-01-19T18:56:01.857Z,4.95
2023-01-19T18:58:29.400Z,4.51
2023-01-19T19:00:56.585Z,4.63
2023-01-19T19:03:23.252Z,4.59
2023-01-19T19:05:50.011Z,4.36
2023-01-19T19:08:16.780Z,4.62
2023-01-19T19:10:43.887Z,4.22
2023-01-19T19:13:15.424Z,4.61
2023-01-19T19:15:44.236Z,4.71
2023-01-19T19:18:13.620Z,4.73
2023-01-19T19:20:41.984Z,4.86
2023-01-19T19:23:09.603Z,4.89
2023-01-19T19:25:36.380Z,4.78
2023-01-19T19:28:03.310Z,4.69
2023-01-19T19:30:30.011Z,4.63
2023-01-19T19:32:58.996Z,3.90
2023-01-19T19:35:26.191Z,4.02
2023-01-19T19:37:57.841Z,4.12
2023-01-19T19:40:26.486Z,4.22
2023-01-19T19:42:53.251Z,4.04
2023-01-19T19:45:19.936Z,4.24
2023-01-19T19:47:46.681Z,3.94
2023-01-19T19:50:14.108Z,4.03
2023-01-19T19:52:58.756Z,3.89
2023-01-19T19:55:25.411Z,4.01
2023-01-19T19:57:52.649Z,4.09
2023-01-19T20:00:19.561Z,4.20
2023-01-19T20:02:46.458Z,4.09
2023-01-19T20:05:13.113Z,4.12
2023-01-19T20:07:46.238Z,4.27
2023-01-19T20:10:13.114Z,3.97
2023-01-19T20:12:40.436Z,3.99
2023-01-19T20:15:07.460Z,3.79
2023-01-19T20:17:34.182Z,4.09
2023-01-19T20:20:03.923Z,4.01
2023-01-19T20:22:30.501Z,3.65
2023-01-19T20:24:57.082Z,3.65
2023-01-19T20:27:23.788Z,3.86
2023-01-19T20:29:51.812Z,4.02
2023-01-19T20:32:18.500Z,3.71
2023-01-19T20:34:45.493Z,3.60
2023-01-19T20:37:12.073Z,3.49
2023-01-19T20:39:38.808Z,3.12
2023-01-19T20:42:09.903Z,3.35
2023-01-19T20:44:36.553Z,3.41
2023-01-19T20:47:05.205Z,3.31
2023-01-19T20:49:33.083Z,3.49
2023-01-19T20:51:59.649Z,3.20
2023-01-19T20:54:27.875Z,2.91
2023-01-19T20:56:54.503Z,2.70
2023-01-19T20:59:21.217Z,2.71
2023-01-19T21:01:49.110Z,3.02
2023-01-19T21:04:17.088Z,3.02
2023-01-19T21:06:43.884Z,3.34
2023-01-19T21:09:10.815Z,3.24
2023-01-19T21:11:38.219Z,3.36
2023-01-19T21:14:05.513Z,3.25
2023-01-19T21:16:34.032Z,3.40
2023-01-19T21:19:00.978Z,3.32
2023-01-19T21:21:31.819Z,3.34
2023-01-19T21:24:00.931Z,3.32
2023-01-19T21:26:32.867Z,4.15
2023-01-19T21:29:03.581Z,3.71
2023-01-19T21:31:33.514Z,4.02
2023-01-19T21:34:00.265Z,3.71
2023-01-19T21:36:26.964Z,3.79
2023-01-19T21:38:55.559Z,4.13
2023-01-19T21:41:22.541Z,3.40
2023-01-19T21:43:52.117Z,3.65
2023-01-19T21:46:21.728Z,3.89
2023-01-19T21:48:48.811Z,3.41
2023-01-19T21:51:16.523Z,3.35
2023-01-19T21:53:43.118Z,3.13
2023-01-19T21:56:11.988Z,3.53
2023-01-19T21:58:38.634Z,3.76
2023-01-19T22:01:09.681Z,3.88
2023-01-19T22:03:39.461Z,3.73
2023-01-19T22:06:11.321Z,3.28
2023-01-19T22:08:41.389Z,3.76
2023-01-19T22:11:13.574Z,3.63
2023-01-19T22:13:41.894Z,3.74
2023-01-19T22:16:15.268Z,3.67
2023-01-19T22:18:44.191Z,3.69
2023-01-19T22:21:21.594Z,3.37
2023-01-19T22:23:51.160Z,2.96
2023-01-19T22:26:18.442Z,3.32
2023-01-19T22:28:45.545Z,3.43
2023-01-19T22:31:15.292Z,3.12
2023-01-19T22:33:45.447Z,3.26
2023-01-19T22:36:19.657Z,3.37
2023-01-19T22:39:03.895Z,3.12
2023-01-19T22:41:38.678Z,3.10
2023-01-19T22:44:20.956Z,3.36
2023-01-19T22:46:49.468Z,3.22
2023-01-19T22:49:19.412Z,2.75
2023-01-19T22:51:46.219Z,3.02
2023-01-19T22:54:13.557Z,3.33
2023-01-19T22:56:43.527Z,2.73
2023-01-19T22:59:13.164Z,2.93
2023-01-19T23:01:42.154Z,2.86
2023-01-19T23:04:12.976Z,3.34
2023-01-19T23:06:42.928Z,2.92
2023-01-19T23:09:15.612Z,3.10
2023-01-19T23:11:44.173Z,3.02
2023-01-19T23:14:15.784Z,3.24
2023-01-19T23:16:42.586Z,3.21
2023-01-19T23:19:10.093Z,3.59
2023-01-19T23:21:39.861Z,3.27
2023-01-19T23:24:07.328Z,3.43
2023-01-19T23:26:38.371Z,3.60
2023-01-19T23:29:07.681Z,3.65
2023-01-19T23:31:36.382Z,3.67
2023-01-19T23:34:08.099Z,3.85
2023-01-19T23:36:39.448Z,3.76
2023-01-19T23:39:13.605Z,3.47
2023-01-19T23:41:40.258Z,3.49
2023-01-19T23:44:07.007Z,3.71
2023-01-19T23:46:33.684Z,3.80
2023-01-19T23:49:00.313Z,4.02
2023-01-19T23:51:32.288Z,3.85
2023-01-19T23:54:02.225Z,3.97
2023-01-19T23:56:31.737Z,3.63
2023-01-19T23:59:03.998Z,3.79
